Flight Track Log - Related Links

Times and Time Zones

All times are in EDT time to prevent confusion due to time zone crossing. See the N76AD flight status page for this flight to view local times or setup timezone preferences in your user account.

Time Position Orientation Groundspeed Altitude Reporting Facility
EDT Latitude Longitude Course Direction KTS MPH feet Rate Location/Type
Sat 03:05:40 PM 41.6000 -72.5000 143° Southeast 134 154 4,000  Level New York TRACON
Sat 03:06:40 PM 41.5833 -72.4833 143° Southeast 134 154 3,900 -100 Descending New York TRACON
Sat 03:07:40 PM 41.6167 -72.5000 340° North 152 175 3,800 -381 Descending New York TRACON
Sat 03:08:46 PM 41.6333 -72.5333 304° West 110 127 3,100 -450 Descending New York TRACON
Sat 03:09:40 PM 41.6500 -72.5500 323° Northwest 125 144 2,900 -33 Descending New York TRACON
Sat 03:11:00 PM 41.6237 -72.5672 206° Southwest  Level Estimated
Sat 03:11:46 PM 41.6500 -72.5000 206° Southwest 118 136 3,000  Level New York TRACON
Sat 03:13:00 PM 41.6261 -72.5170 208° Southwest  Level Estimated
Sat 03:20:00 PM 41.4903 -72.6135 208° Southwest  Level Estimated
Sat 03:21:00 PM 41.4709 -72.6273 208° Southwest  Level Estimated
Sat 03:22:00 PM 41.4515 -72.6410 208° Southwest  Level Estimated
Sat 03:23:00 PM 41.4320 -72.6547 208° Southwest  Level Estimated
Sat 03:24:00 PM 41.4126 -72.6685 208° Southwest  Level Estimated
Sat 03:25:00 PM 41.3932 -72.6822 208° Southwest  Level Estimated
Sat 03:26:00 PM 41.3738 -72.6959 208° Southwest  Level Estimated
Sat 03:27:00 PM 41.3544 -72.7096 208° Southwest  Level Estimated
Sat 03:28:00 PM 41.3350 -72.7233 208° Southwest  Level Estimated
Sat 03:29:00 PM 41.3155 -72.7370 208° Southwest  Level Estimated
Sat 03:30:00 PM 41.2961 -72.7507 208° Southwest  Level Estimated
Sat 03:31:00 PM 41.2767 -72.7643 208° Southwest  Level Estimated
Sat 03:32:00 PM 41.2573 -72.7780 208° Southwest  Level Estimated
Sat 03:33:00 PM 41.2378 -72.7916 208° Southwest  Level Estimated
Sat 03:34:00 PM 41.2184 -72.8053 208° Southwest  Level Estimated
Sat 03:35:00 PM 41.1990 -72.8189 208° Southwest  Level Estimated
Sat 03:35:46 PM 41.1000 -73.2000 208° Southwest 89 102 1,900  Level New York TRACON
Sat 03:36:00 PM 41.1796 -72.8326 208° Southwest  Level Estimated
Sat 03:36:46 PM 41.0833 -73.1833 143° Southeast 110 127 2,100  Level New York TRACON
Sat 03:37:00 PM 41.1601 -72.8462 208° Southwest  Level Estimated
Sat 03:37:46 PM 41.0667 -73.1500 124° Southeast 118 136 1,900  Level New York TRACON
Sat 03:38:00 PM 41.1407 -72.8598 208° Southwest  Level Estimated
Sat 03:38:46 PM 41.0333 -73.1333 159° South 112 129 1,900  Level New York TRACON
Sat 03:39:00 PM 41.1213 -72.8734 208° Southwest  Level Estimated
Sat 03:39:46 PM 41.0167 -73.1000 124° Southeast 115 132 1,900  Level New York TRACON
Sat 03:40:00 PM 41.1018 -72.8870 208° Southwest  Level Estimated
Sat 03:40:46 PM 41.0000 -73.0833 143° Southeast 108 124 2,000  Level New York TRACON
Sat 03:41:00 PM 41.0824 -72.9006 208° Southwest  Level Estimated
Sat 03:41:46 PM 40.9667 -73.0833 180° South 100 115 1,900  Level New York TRACON
Sat 03:42:46 PM 40.9500 -73.0500 123° Southeast 119 137 1,900  Level New York TRACON
Sat 03:43:46 PM 40.9500 -73.0167 90° East 113 130 1,900  Level New York TRACON
Sat 03:44:40 PM 40.9333 -72.9833 123° Southeast 108 124 1,900  Level New York TRACON
Sat 03:45:46 PM 40.9167 -73.0000 217° Southwest 90 104 1,900  Level New York TRACON
Sat 03:46:46 PM 40.9167 -73.0333 270° West 85 98 1,900 69 Level New York TRACON
Sat 03:48:40 PM 40.8833 -73.0333 180° South 111 128 2,100 105 Climbing New York TRACON

Login

Don't have an account? Register now (free) for customized features, flight alerts, and more!